Time;durP1;ratioP1;P1;durP2;ratioP2;P2;SDS_P1;SDS_P2;PMS_P1;PMS_P2;Temp;Humidity;BMP_temperature;BMP_pressure;BME280_temperature;BME280_humidity;BME280_pressure;Samples;Min_cycle;Max_cycle;Signal;HPM_P1;HPM_P2
2022/06/04 00:01:36;;;;;;;10.25;9.05;;;;;;;;;;1721992;82;21136;-74
2022/06/04 00:04:03;;;;;;;11.00;8.75;;;;;;;;;;1722502;82;21049;-75
2022/06/04 00:06:30;;;;;;;10.63;8.63;;;;;;;;;;1709964;84;21017;-74
2022/06/04 00:08:57;;;;;;;9.90;8.30;;;;;;;;;;1715789;82;21076;-73
2022/06/04 00:16:53;;;;;;;10.45;8.08;;;;;;;;;;1716130;82;21037;-75
2022/06/04 00:19:21;;;;;;;11.43;7.75;;;;;;;;;;1732537;82;21584;-75
2022/06/04 00:21:48;;;;;;;11.85;8.88;;;;;;;;;;1648239;86;21080;-75
2022/06/04 00:24:14;;;;;;;10.45;8.03;;;;;;;;;;1718621;82;21017;-75
2022/06/04 00:26:40;;;;;;;8.35;6.95;;;;;;;;;;1718352;83;20997;-75
2022/06/04 00:29:07;;;;;;;8.48;6.90;;;;;;;;;;1737323;82;20989;-75
2022/06/04 00:31:33;;;;;;;8.20;7.00;;;;;;;;;;1747069;82;21008;-75
2022/06/04 00:33:59;;;;;;;8.25;6.40;;;;;;;;;;1741046;82;20996;-75
2022/06/04 00:36:25;;;;;;;8.30;6.97;;;;;;;;;;1746923;82;21009;-74
2022/06/04 00:38:52;;;;;;;6.80;6.05;;;;;;;;;;1740193;82;21531;-74
2022/06/04 00:41:20;;;;;;;7.75;6.03;;;;;;;;;;1730170;82;21037;-74
2022/06/04 00:43:57;;;;;;;7.17;6.17;;;;;;;;;;1727730;82;21049;-74
2022/06/04 00:46:42;;;;;;;7.25;6.22;;;;;;;;;;1718018;82;21037;-74
2022/06/04 00:49:09;;;;;;;7.13;5.27;;;;;;;;;;1724804;82;21084;-74
2022/06/04 00:51:35;;;;;;;5.97;5.37;;;;;;;;;;1733034;82;20993;-74
2022/06/04 00:54:01;;;;;;;6.78;5.17;;;;;;;;;;1718364;82;21025;-74
2022/06/04 00:56:47;;;;;;;6.72;5.58;;;;;;;;;;1717968;83;21589;-74
2022/06/04 00:59:31;;;;;;;8.18;5.00;;;;;;;;;;1740949;82;21033;-75
2022/06/04 01:04:47;;;;;;;7.58;4.95;;;;;;;;;;1691190;79;21098;-73
2022/06/04 01:07:25;;;;;;;4.47;4.05;;;;;;;;;;1720444;83;21555;-73
2022/06/04 01:10:02;;;;;;;5.45;4.10;;;;;;;;;;1686339;83;21095;-72
2022/06/04 01:12:47;;;;;;;5.50;4.55;;;;;;;;;;1735775;82;21102;-72
2022/06/04 01:15:20;;;;;;;6.50;4.55;;;;;;;;;;1733821;83;21030;-73
2022/06/04 01:17:48;;;;;;;6.17;4.50;;;;;;;;;;1727042;82;21096;-73
2022/06/04 01:20:17;;;;;;;5.22;4.70;;;;;;;;;;1735967;83;21084;-73
2022/06/04 01:23:04;;;;;;;5.37;4.62;;;;;;;;;;1724342;83;21040;-72
2022/06/04 01:25:48;;;;;;;6.78;5.25;;;;;;;;;;1680375;84;21065;-72
2022/06/04 01:28:16;;;;;;;5.42;4.47;;;;;;;;;;1722111;83;21039;-72
2022/06/04 01:30:44;;;;;;;6.00;5.40;;;;;;;;;;1727111;83;21540;-73
2022/06/04 01:33:15;;;;;;;5.40;4.55;;;;;;;;;;1720402;82;21028;-72
2022/06/04 01:35:52;;;;;;;5.60;4.50;;;;;;;;;;1678793;84;21064;-72
2022/06/04 01:38:24;;;;;;;6.22;4.62;;;;;;;;;;1735733;83;21516;-72
2022/06/04 01:41:05;;;;;;;6.42;4.90;;;;;;;;;;1716718;83;21099;-72
2022/06/04 01:43:54;;;;;;;6.37;4.72;;;;;;;;;;1731474;83;21104;-72
2022/06/04 01:46:31;;;;;;;7.15;4.78;;;;;;;;;;1712091;83;21576;-72
2022/06/04 01:48:58;;;;;;;5.33;4.70;;;;;;;;;;1729285;83;21074;-72
2022/06/04 01:51:26;;;;;;;5.97;4.60;;;;;;;;;;1706571;83;21070;-72
2022/06/04 01:53:54;;;;;;;5.42;4.42;;;;;;;;;;1706407;83;21173;-72
2022/06/04 01:56:21;;;;;;;5.33;4.60;;;;;;;;;;1711665;83;21533;-71
2022/06/04 01:58:50;;;;;;;5.42;4.85;;;;;;;;;;1724818;83;21341;-72
2022/06/04 02:01:18;;;;;;;6.42;4.58;;;;;;;;;;1723029;83;21001;-73
2022/06/04 02:03:58;;;;;;;5.50;4.70;;;;;;;;;;1732425;81;21087;-73
2022/06/04 02:06:27;;;;;;;6.40;4.97;;;;;;;;;;1700065;83;21547;-73
2022/06/04 02:08:57;;;;;;;7.83;4.33;;;;;;;;;;1690129;83;21088;-73
2022/06/04 02:11:24;;;;;;;6.00;4.83;;;;;;;;;;1688289;83;21100;-73
2022/06/04 02:13:52;;;;;;;5.92;4.62;;;;;;;;;;1680458;83;21544;-73
2022/06/04 02:16:22;;;;;;;5.53;4.28;;;;;;;;;;1672697;86;21600;-73
2022/06/04 02:18:48;;;;;;;6.12;4.70;;;;;;;;;;1674623;83;21092;-73
2022/06/04 02:21:16;;;;;;;5.75;4.67;;;;;;;;;;1727700;83;21562;-74
2022/06/04 02:23:45;;;;;;;5.42;4.55;;;;;;;;;;1704646;83;21015;-73
2022/06/04 02:26:11;;;;;;;5.87;4.30;;;;;;;;;;1718918;83;21056;-74
2022/06/04 02:28:38;;;;;;;5.17;3.67;;;;;;;;;;1692785;83;21057;-73
2022/06/04 02:31:09;;;;;;;5.80;4.25;;;;;;;;;;1710532;83;21025;-74
2022/06/04 02:33:38;;;;;;;6.80;4.15;;;;;;;;;;1700901;84;21005;-73
2022/06/04 02:36:09;;;;;;;6.60;3.83;;;;;;;;;;1723260;83;21253;-73
2022/06/04 02:38:37;;;;;;;4.83;4.35;;;;;;;;;;1729327;83;21096;-74
2022/06/04 02:41:17;;;;;;;5.20;4.67;;;;;;;;;;1696538;83;21052;-74
2022/06/04 02:43:46;;;;;;;5.50;4.50;;;;;;;;;;1676131;83;21072;-74
2022/06/04 02:46:22;;;;;;;5.15;4.40;;;;;;;;;;1690754;83;21036;-73
2022/06/04 02:48:58;;;;;;;5.17;3.92;;;;;;;;;;1726155;83;21040;-72
2022/06/04 02:51:21;;;;;;;4.90;3.80;;;;;;;;;;1700790;84;21078;-72
2022/06/04 02:53:48;;;;;;;5.22;3.95;;;;;;;;;;1720681;83;21052;-73
2022/06/04 02:56:22;;;;;;;4.47;3.80;;;;;;;;;;1711182;83;21136;-73
2022/06/04 02:58:48;;;;;;;;;;;;;;;;;;1732353;83;21072;-73
2022/06/04 03:01:14;;;;;;;5.08;4.42;;;;;;;;;;1730033;83;20140;-73
2022/06/04 03:03:41;;;;;;;5.58;4.58;;;;;;;;;;1720727;82;21713;-73
2022/06/04 03:06:08;;;;;;;6.72;4.50;;;;;;;;;;1727348;83;21059;-73
2022/06/04 03:08:36;;;;;;;6.10;4.67;;;;;;;;;;1729658;83;21088;-73
2022/06/04 03:11:02;;;;;;;8.75;4.83;;;;;;;;;;1723134;83;21102;-73
2022/06/04 03:13:29;;;;;;;7.72;4.95;;;;;;;;;;1714284;83;21028;-73
2022/06/04 03:15:55;;;;;;;7.83;4.60;;;;;;;;;;1697577;83;21101;-73
2022/06/04 03:18:21;;;;;;;5.95;4.95;;;;;;;;;;1695127;83;21571;-73
2022/06/04 03:20:48;;;;;;;5.95;4.37;;;;;;;;;;1714116;83;21111;-73
2022/06/04 03:23:15;;;;;;;5.53;4.37;;;;;;;;;;1724048;83;21111;-73
2022/06/04 03:25:41;;;;;;;4.78;3.50;;;;;;;;;;1706697;83;21034;-73
2022/06/04 03:28:09;;;;;;;6.00;3.92;;;;;;;;;;1678986;83;21054;-73
2022/06/04 03:30:35;;;;;;;4.40;3.27;;;;;;;;;;1678667;83;21046;-73
2022/06/04 03:33:02;;;;;;;4.30;2.90;;;;;;;;;;1692004;83;21140;-73
2022/06/04 03:35:28;;;;;;;3.92;2.72;;;;;;;;;;1686367;83;21022;-73
2022/06/04 03:37:58;;;;;;;3.77;3.10;;;;;;;;;;1678566;83;21077;-73
2022/06/04 03:40:24;;;;;;;4.00;2.87;;;;;;;;;;1688759;83;21517;-73
2022/06/04 03:42:50;;;;;;;3.70;2.90;;;;;;;;;;1711153;83;21101;-74
2022/06/04 03:45:17;;;;;;;5.22;2.80;;;;;;;;;;1699007;83;21553;-73
2022/06/04 03:47:44;;;;;;;4.72;2.95;;;;;;;;;;1695941;83;21057;-73
2022/06/04 03:50:12;;;;;;;4.85;3.52;;;;;;;;;;1696671;84;21056;-73
2022/06/04 03:52:39;;;;;;;3.00;2.50;;;;;;;;;;1715273;83;21176;-73
2022/06/04 03:55:06;;;;;;;3.15;2.85;;;;;;;;;;1722049;83;21046;-73
2022/06/04 03:57:41;;;;;;;3.65;2.65;;;;;;;;;;1709947;83;21140;-73
2022/06/04 04:00:29;;;;;;;2.95;2.35;;;;;;;;;;1682231;83;21073;-73
2022/06/04 04:02:58;;;;;;;3.20;2.45;;;;;;;;;;1683498;83;21624;-73
2022/06/04 04:05:26;;;;;;;3.02;2.17;;;;;;;;;;1718987;83;21028;-73
2022/06/04 04:07:52;;;;;;;3.10;2.40;;;;;;;;;;1674968;83;21041;-73
2022/06/04 04:10:18;;;;;;;2.77;2.10;;;;;;;;;;1656145;83;21579;-73
2022/06/04 04:12:48;;;;;;;2.50;2.20;;;;;;;;;;1726232;83;21056;-73
2022/06/04 04:15:15;;;;;;;3.45;2.30;;;;;;;;;;1722948;83;21579;-73
2022/06/04 04:17:41;;;;;;;2.60;2.00;;;;;;;;;;1703266;83;21044;-73
2022/06/04 04:20:10;;;;;;;2.35;2.05;;;;;;;;;;1708298;83;21084;-73
2022/06/04 04:22:37;;;;;;;2.85;2.10;;;;;;;;;;1699485;84;21016;-73
2022/06/04 04:25:04;;;;;;;2.80;2.10;;;;;;;;;;1706050;84;21073;-73
2022/06/04 04:27:30;;;;;;;3.12;2.25;;;;;;;;;;1693184;84;21033;-73
2022/06/04 04:29:56;;;;;;;3.40;2.05;;;;;;;;;;1702634;84;21164;-73
2022/06/04 04:32:22;;;;;;;2.02;1.82;;;;;;;;;;1702641;84;21040;-73
2022/06/04 04:34:49;;;;;;;4.33;2.10;;;;;;;;;;1706053;83;21045;-73
2022/06/04 04:37:15;;;;;;;2.50;2.17;;;;;;;;;;1717438;83;21169;-73
2022/06/04 04:39:41;;;;;;;2.72;2.12;;;;;;;;;;1717254;83;20993;-73
2022/06/04 04:42:07;;;;;;;2.45;2.08;;;;;;;;;;1704872;83;21068;-73
2022/06/04 04:44:33;;;;;;;2.00;1.80;;;;;;;;;;1686426;85;21044;-73
2022/06/04 04:46:59;;;;;;;2.92;1.80;;;;;;;;;;1704360;83;21049;-73
2022/06/04 04:49:25;;;;;;;1.80;1.70;;;;;;;;;;1702834;84;21135;-73
2022/06/04 04:51:53;;;;;;;1.95;1.82;;;;;;;;;;1688297;83;21056;-74
2022/06/04 04:54:19;;;;;;;2.80;1.95;;;;;;;;;;1711854;83;21072;-73
2022/06/04 04:56:47;;;;;;;2.40;2.02;;;;;;;;;;1709769;83;22053;-72
2022/06/04 04:59:13;;;;;;;2.25;2.00;;;;;;;;;;1701025;84;21064;-72
2022/06/04 05:01:40;;;;;;;2.72;2.05;;;;;;;;;;1701072;84;21622;-72
2022/06/04 05:04:06;;;;;;;2.30;2.00;;;;;;;;;;1710782;83;21188;-72
2022/06/04 05:06:34;;;;;;;4.33;2.20;;;;;;;;;;1707613;83;21088;-72
2022/06/04 05:09:00;;;;;;;2.55;1.90;;;;;;;;;;1702944;84;21084;-72
2022/06/04 05:11:27;;;;;;;2.60;1.90;;;;;;;;;;1702236;84;21543;-72
2022/06/04 05:13:53;;;;;;;2.47;2.10;;;;;;;;;;1705651;83;21001;-73
2022/06/04 05:16:20;;;;;;;3.47;2.10;;;;;;;;;;1694717;85;21044;-72
2022/06/04 05:18:48;;;;;;;2.42;1.90;;;;;;;;;;1694750;85;21072;-73
2022/06/04 05:21:19;;;;;;;1.98;1.77;;;;;;;;;;1694914;85;21001;-73
2022/06/04 05:23:45;;;;;;;2.20;2.00;;;;;;;;;;1695914;83;21107;-72
2022/06/04 05:26:11;;;;;;;3.98;2.00;;;;;;;;;;1730366;83;22076;-73
2022/06/04 05:28:38;;;;;;;3.00;2.10;;;;;;;;;;1699522;83;21623;-72
2022/06/04 05:31:05;;;;;;;3.62;2.20;;;;;;;;;;1697820;84;21083;-73
2022/06/04 05:33:31;;;;;;;2.42;2.00;;;;;;;;;;1696640;83;21266;-72
2022/06/04 05:35:57;;;;;;;2.22;1.90;;;;;;;;;;1705877;84;21137;-72
2022/06/04 05:38:24;;;;;;;1.95;1.77;;;;;;;;;;1712053;84;21496;-73
2022/06/04 05:40:52;;;;;;;2.50;2.00;;;;;;;;;;1708181;83;21064;-73
2022/06/04 05:43:18;;;;;;;5.45;2.30;;;;;;;;;;1693945;84;20989;-72
2022/06/04 05:45:45;;;;;;;2.55;1.98;;;;;;;;;;1695304;84;21093;-72
2022/06/04 05:48:11;;;;;;;2.40;2.20;;;;;;;;;;1695441;84;21038;-72
2022/06/04 05:50:38;;;;;;;3.58;1.90;;;;;;;;;;1697341;84;21596;-72
2022/06/04 05:53:04;;;;;;;2.35;1.87;;;;;;;;;;1678372;85;21033;-72
2022/06/04 05:55:30;;;;;;;2.50;1.95;;;;;;;;;;1689253;83;21048;-73
2022/06/04 05:57:57;;;;;;;3.85;2.20;;;;;;;;;;1699729;83;21106;-72
2022/06/04 06:00:24;;;;;;;2.50;1.80;;;;;;;;;;1705505;83;21548;-72
2022/06/04 06:02:50;;;;;;;2.08;1.87;;;;;;;;;;1705034;82;21132;-72
2022/06/04 06:05:16;;;;;;;2.33;2.10;;;;;;;;;;1695738;83;21064;-72
2022/06/04 06:07:44;;;;;;;2.30;1.98;;;;;;;;;;1694833;84;21072;-72
2022/06/04 06:10:10;;;;;;;2.20;2.00;;;;;;;;;;1702049;84;21002;-72
2022/06/04 06:12:36;;;;;;;2.25;2.00;;;;;;;;;;1699565;84;21515;-72
2022/06/04 06:15:02;;;;;;;2.52;2.00;;;;;;;;;;1700711;84;21042;-72
2022/06/04 06:17:29;;;;;;;2.47;2.20;;;;;;;;;;1685494;84;21056;-73
2022/06/04 06:19:54;;;;;;;2.52;2.12;;;;;;;;;;1697359;83;21037;-73
2022/06/04 06:22:21;;;;;;;3.72;2.10;;;;;;;;;;1701205;83;21591;-72
2022/06/04 06:24:48;;;;;;;3.58;2.27;;;;;;;;;;1707957;83;21080;-73
2022/06/04 06:27:14;;;;;;;2.67;2.00;;;;;;;;;;1710957;83;21600;-73
2022/06/04 06:29:40;;;;;;;1.98;1.77;;;;;;;;;;1713585;84;21584;-73
2022/06/04 06:32:08;;;;;;;3.25;1.98;;;;;;;;;;1713906;84;21096;-72
2022/06/04 06:34:34;;;;;;;2.27;1.98;;;;;;;;;;1702602;84;21065;-72
2022/06/04 06:40:03;;;;;;;2.62;2.20;;;;;;;;;;1790930;79;23580;-71
2022/06/04 06:42:30;;;;;;;3.15;2.20;;;;;;;;;;1761644;81;21064;-72
2022/06/04 06:44:58;;;;;;;2.47;2.02;;;;;;;;;;1761563;81;21097;-73
2022/06/04 06:47:24;;;;;;;3.60;1.90;;;;;;;;;;1761618;81;21025;-73
2022/06/04 06:49:50;;;;;;;2.90;2.00;;;;;;;;;;1761557;81;21025;-73
2022/06/04 06:52:19;;;;;;;1.95;1.82;;;;;;;;;;1762331;81;20949;-73
2022/06/04 06:54:46;;;;;;;2.00;1.80;;;;;;;;;;1761576;81;21535;-73
2022/06/04 06:57:14;;;;;;;2.20;2.00;;;;;;;;;;1759438;81;20969;-73
2022/06/04 06:59:43;;;;;;;3.20;1.85;;;;;;;;;;1760802;81;21520;-73
2022/06/04 07:02:09;;;;;;;1.92;1.72;;;;;;;;;;1761465;81;21068;-73
2022/06/04 07:04:35;;;;;;;1.72;1.62;;;;;;;;;;1732003;81;21116;-73
2022/06/04 07:07:01;;;;;;;1.60;1.50;;;;;;;;;;1730094;83;21020;-73
2022/06/04 07:09:31;;;;;;;2.83;1.80;;;;;;;;;;1726803;82;21575;-73
2022/06/04 07:11:57;;;;;;;1.70;1.60;;;;;;;;;;1723498;83;21008;-73
2022/06/04 07:14:25;;;;;;;2.62;1.60;;;;;;;;;;1727537;82;21008;-73
2022/06/04 07:16:52;;;;;;;2.37;2.00;;;;;;;;;;1728948;83;21568;-73
2022/06/04 07:19:18;;;;;;;2.35;1.95;;;;;;;;;;1729311;82;21013;-71
2022/06/04 07:21:45;;;;;;;1.52;1.42;;;;;;;;;;1729749;83;21064;-72
2022/06/04 07:24:11;;;;;;;1.67;1.57;;;;;;;;;;1729268;82;21033;-72
2022/06/04 07:26:39;;;;;;;2.65;1.80;;;;;;;;;;1729839;82;21072;-73
2022/06/04 07:29:05;;;;;;;2.17;1.80;;;;;;;;;;1730162;82;20993;-82
2022/06/04 07:31:31;;;;;;;2.98;1.90;;;;;;;;;;1729973;83;21076;-77
2022/06/04 07:33:58;;;;;;;2.00;1.80;;;;;;;;;;1730223;83;21020;-78
2022/06/04 07:36:26;;;;;;;2.00;1.80;;;;;;;;;;1730052;82;21528;-76
2022/06/04 07:38:52;;;;;;;1.92;1.80;;;;;;;;;;1729719;82;21619;-76
2022/06/04 07:41:20;;;;;;;2.00;1.80;;;;;;;;;;1730239;82;21077;-77
2022/06/04 07:43:47;;;;;;;2.02;1.80;;;;;;;;;;1729524;82;21073;-78
2022/06/04 07:46:14;;;;;;;3.75;1.70;;;;;;;;;;1730125;82;21096;-77
2022/06/04 07:48:40;;;;;;;2.05;1.85;;;;;;;;;;1730358;83;21064;-75
2022/06/04 07:51:06;;;;;;;2.47;1.80;;;;;;;;;;1729891;82;21044;-77
2022/06/04 07:53:34;;;;;;;2.55;1.90;;;;;;;;;;1729709;82;21040;-75
2022/06/04 07:56:08;;;;;;;2.00;1.80;;;;;;;;;;1729559;83;21053;-76
2022/06/04 07:58:35;;;;;;;4.47;1.90;;;;;;;;;;1729203;82;21053;-76
2022/06/04 08:01:03;;;;;;;3.15;2.00;;;;;;;;;;1729707;82;21060;-77
2022/06/04 08:03:30;;;;;;;2.65;1.87;;;;;;;;;;1729569;82;21100;-77
2022/06/04 08:05:57;;;;;;;2.10;1.90;;;;;;;;;;1729741;83;21485;-77
2022/06/04 08:08:23;;;;;;;2.83;1.98;;;;;;;;;;1729610;82;21039;-77
2022/06/04 08:10:49;;;;;;;2.98;2.20;;;;;;;;;;1729633;83;21049;-77
2022/06/04 08:13:33;;;;;;;2.90;1.90;;;;;;;;;;1730024;83;21088;-77
2022/06/04 08:15:47;;;;;;;2.55;2.00;;;;;;;;;;1724568;82;21036;-76
2022/06/04 08:18:13;;;;;;;3.00;2.15;;;;;;;;;;1729886;82;21250;-76
2022/06/04 08:20:41;;;;;;;2.77;2.17;;;;;;;;;;1729555;82;21094;-77
2022/06/04 08:23:08;;;;;;;3.83;2.30;;;;;;;;;;1729881;83;21028;-76
2022/06/04 08:25:36;;;;;;;3.12;2.50;;;;;;;;;;1729390;82;21554;-76
2022/06/04 08:28:03;;;;;;;3.10;2.30;;;;;;;;;;1729816;82;21056;-77
2022/06/04 08:30:29;;;;;;;3.00;2.50;;;;;;;;;;1729522;82;21084;-77
2022/06/04 08:32:55;;;;;;;2.58;2.25;;;;;;;;;;1729872;82;20997;-77
2022/06/04 08:35:21;;;;;;;3.35;2.52;;;;;;;;;;1729738;83;21635;-77
2022/06/04 08:37:47;;;;;;;3.67;2.40;;;;;;;;;;1729631;83;20993;-76
2022/06/04 08:40:24;;;;;;;3.17;2.37;;;;;;;;;;1718425;83;21108;-77
2022/06/04 08:42:57;;;;;;;4.55;2.50;;;;;;;;;;1716767;83;21112;-77
2022/06/04 08:45:24;;;;;;;2.75;2.45;;;;;;;;;;1715721;83;21076;-77
2022/06/04 08:47:51;;;;;;;2.87;2.30;;;;;;;;;;1716852;83;21077;-77
2022/06/04 08:50:20;;;;;;;3.02;2.30;;;;;;;;;;1716431;83;21041;-76
2022/06/04 08:52:50;;;;;;;5.95;2.60;;;;;;;;;;1716061;83;21081;-76
2022/06/04 08:58:07;;;;;;;2.67;2.25;;;;;;;;;;1716942;83;21026;-76
2022/06/04 09:00:45;;;;;;;3.85;2.42;;;;;;;;;;1716306;83;21081;-76
2022/06/04 09:03:19;;;;;;;3.05;2.37;;;;;;;;;;1716717;83;21096;-76
2022/06/04 09:05:47;;;;;;;3.30;2.50;;;;;;;;;;1716673;83;21057;-76
2022/06/04 09:08:18;;;;;;;2.70;2.15;;;;;;;;;;1716793;83;21069;-76
2022/06/04 09:10:51;;;;;;;15.53;3.20;;;;;;;;;;1716276;83;21014;-76
2022/06/04 09:13:20;;;;;;;3.30;2.30;;;;;;;;;;1716723;83;21590;-76
2022/06/04 09:15:49;;;;;;;3.65;2.37;;;;;;;;;;1716409;83;21042;-76
2022/06/04 09:18:17;;;;;;;2.67;2.47;;;;;;;;;;1716606;83;21041;-76
2022/06/04 09:20:44;;;;;;;2.87;2.58;;;;;;;;;;1716683;83;21505;-76
2022/06/04 09:23:16;;;;;;;3.45;2.50;;;;;;;;;;1716643;83;21096;-76
2022/06/04 09:25:50;;;;;;;2.60;2.40;;;;;;;;;;1716928;83;21077;-76
2022/06/04 09:28:34;;;;;;;3.87;2.60;;;;;;;;;;1716777;83;21062;-76
2022/06/04 09:31:07;;;;;;;3.37;2.60;;;;;;;;;;1716841;83;21061;-75
2022/06/04 09:33:42;;;;;;;2.70;2.40;;;;;;;;;;1715832;83;21573;-75
2022/06/04 09:36:11;;;;;;;2.65;2.45;;;;;;;;;;1716818;83;21556;-76
2022/06/04 09:38:37;;;;;;;3.17;2.65;;;;;;;;;;1717860;83;21092;-75
2022/06/04 09:41:05;;;;;;;2.52;2.17;;;;;;;;;;1729819;83;21103;-76
2022/06/04 09:43:31;;;;;;;2.50;2.30;;;;;;;;;;1729847;83;21862;-75
2022/06/04 09:45:59;;;;;;;2.85;2.60;;;;;;;;;;1729597;83;21135;-76
2022/06/04 09:48:28;;;;;;;2.65;2.45;;;;;;;;;;1729833;82;21560;-76
2022/06/04 09:50:56;;;;;;;3.80;2.55;;;;;;;;;;1729604;82;21060;-76
2022/06/04 09:53:32;;;;;;;3.08;2.70;;;;;;;;;;1729942;82;21112;-76
2022/06/04 09:56:08;;;;;;;3.67;2.45;;;;;;;;;;1729633;83;21485;-76
2022/06/04 09:58:39;;;;;;;3.45;2.50;;;;;;;;;;1729754;83;21516;-76
2022/06/04 10:01:07;;;;;;;3.33;2.60;;;;;;;;;;1728802;82;21108;-76
2022/06/04 10:03:36;;;;;;;3.65;2.40;;;;;;;;;;1729706;83;21151;-77
2022/06/04 10:06:07;;;;;;;6.00;2.80;;;;;;;;;;1729374;82;21079;-76
2022/06/04 10:09:55;;;;;;;3.72;2.72;;;;;;;;;;1729021;82;21080;-76
2022/06/04 10:11:04;;;;;;;3.40;2.55;;;;;;;;;;1727490;83;21013;-77
2022/06/04 10:13:45;;;;;;;5.53;2.67;;;;;;;;;;1729780;83;21061;-77
2022/06/04 10:16:14;;;;;;;4.30;2.90;;;;;;;;;;1729685;82;21072;-76
2022/06/04 10:18:41;;;;;;;4.10;2.35;;;;;;;;;;1728860;82;21045;-76
2022/06/04 10:21:18;;;;;;;2.85;2.55;;;;;;;;;;1713077;83;21076;-77
2022/06/04 10:23:46;;;;;;;2.98;2.27;;;;;;;;;;1729499;83;21065;-77
2022/06/04 10:26:31;;;;;;;5.20;2.60;;;;;;;;;;1729308;82;21048;-77
2022/06/04 10:29:15;;;;;;;3.35;2.47;;;;;;;;;;1729548;82;21143;-76
2022/06/04 10:32:01;;;;;;;2.92;2.25;;;;;;;;;;1729323;83;22168;-76
2022/06/04 10:34:45;;;;;;;3.10;2.45;;;;;;;;;;1729648;83;21044;-77
2022/06/04 10:37:19;;;;;;;3.90;2.77;;;;;;;;;;1729574;83;21072;-74
2022/06/04 10:40:04;;;;;;;3.80;2.50;;;;;;;;;;1728034;82;21110;-71
2022/06/04 10:42:36;;;;;;;4.17;2.92;;;;;;;;;;1726285;82;21631;-72
2022/06/04 10:45:07;;;;;;;3.22;2.58;;;;;;;;;;1729021;83;21040;-71
2022/06/04 10:47:36;;;;;;;3.15;2.83;;;;;;;;;;1726557;83;21080;-77
2022/06/04 10:50:19;;;;;;;2.67;2.47;;;;;;;;;;1725152;83;21678;-71
2022/06/04 10:52:53;;;;;;;2.83;2.52;;;;;;;;;;1726028;82;21192;-74
2022/06/04 10:55:21;;;;;;;3.00;2.62;;;;;;;;;;1727079;83;21037;-75
2022/06/04 10:57:49;;;;;;;3.17;2.37;;;;;;;;;;1729632;83;21021;-75
2022/06/04 11:00:20;;;;;;;2.90;2.58;;;;;;;;;;1729528;83;21619;-74
2022/06/04 11:02:48;;;;;;;2.95;2.62;;;;;;;;;;1729554;83;21048;-74
2022/06/04 11:05:19;;;;;;;3.45;2.50;;;;;;;;;;1729692;83;21056;-73
2022/06/04 11:07:54;;;;;;;2.98;2.60;;;;;;;;;;1729620;82;21045;-73
2022/06/04 11:10:25;;;;;;;2.60;2.40;;;;;;;;;;1729335;83;21062;-74
2022/06/04 11:13:04;;;;;;;5.92;2.80;;;;;;;;;;1729820;82;21048;-73
2022/06/04 11:15:35;;;;;;;3.42;2.37;;;;;;;;;;1729488;82;21086;-74
2022/06/04 11:18:06;;;;;;;4.58;2.40;;;;;;;;;;1729680;83;21062;-74
2022/06/04 11:20:33;;;;;;;3.35;2.70;;;;;;;;;;1727909;82;21025;-73
2022/06/04 11:23:04;;;;;;;4.28;2.70;;;;;;;;;;1729654;83;21587;-74
2022/06/04 11:25:32;;;;;;;3.67;2.77;;;;;;;;;;1728902;83;21080;-74
2022/06/04 11:28:00;;;;;;;2.77;2.50;;;;;;;;;;1724364;83;21104;-73
2022/06/04 11:30:46;;;;;;;2.92;2.50;;;;;;;;;;1724246;83;21063;-73
2022/06/04 11:33:15;;;;;;;3.22;2.55;;;;;;;;;;1724057;83;21071;-73
2022/06/04 11:35:43;;;;;;;2.98;2.58;;;;;;;;;;1723289;83;21040;-74
2022/06/04 11:38:11;;;;;;;2.83;2.40;;;;;;;;;;1729509;83;21041;-73
2022/06/04 11:40:43;;;;;;;3.47;2.50;;;;;;;;;;1720773;82;21153;-74
2022/06/04 11:43:17;;;;;;;3.40;2.50;;;;;;;;;;1714884;83;21081;-74
2022/06/04 11:46:01;;;;;;;9.03;2.70;;;;;;;;;;1710936;84;21129;-74
2022/06/04 11:48:30;;;;;;;2.37;2.17;;;;;;;;;;1711068;84;21093;-74
2022/06/04 11:51:01;;;;;;;3.33;2.50;;;;;;;;;;1710916;83;21053;-74
2022/06/04 11:53:34;;;;;;;4.15;2.50;;;;;;;;;;1719543;82;21101;-74
2022/06/04 11:56:02;;;;;;;2.65;2.40;;;;;;;;;;1730439;82;21021;-73
2022/06/04 11:58:46;;;;;;;3.87;2.70;;;;;;;;;;1724500;82;21033;-74
2022/06/04 12:01:12;;;;;;;3.37;2.50;;;;;;;;;;1715573;83;21096;-74
2022/06/04 12:03:48;;;;;;;3.05;2.40;;;;;;;;;;1710620;84;21077;-73
2022/06/04 12:06:22;;;;;;;2.98;2.42;;;;;;;;;;1709738;84;21556;-74
2022/06/04 12:08:51;;;;;;;2.70;2.30;;;;;;;;;;1712894;82;21084;-74
2022/06/04 12:11:36;;;;;;;4.28;2.80;;;;;;;;;;1751733;82;21021;-74
2022/06/04 12:14:21;;;;;;;6.22;2.50;;;;;;;;;;1738309;82;21059;-74
2022/06/04 12:16:53;;;;;;;2.72;2.50;;;;;;;;;;1751618;81;21076;-73
2022/06/04 12:25:07;;;;;;;3.83;2.50;;;;;;;;;;1751996;82;21531;-73
2022/06/04 12:27:34;;;;;;;4.28;3.40;;;;;;;;;;1751622;81;21099;-73
2022/06/04 12:30:01;;;;;;;5.30;4.80;;;;;;;;;;1723898;82;21016;-74
2022/06/04 12:32:29;;;;;;;3.98;3.30;;;;;;;;;;1752777;82;21341;-74
2022/06/04 12:35:03;;;;;;;3.40;3.00;;;;;;;;;;1753169;81;21048;-73
2022/06/04 12:37:35;;;;;;;3.95;2.62;;;;;;;;;;1751826;82;21032;-73
2022/06/04 12:40:24;;;;;;;2.77;2.47;;;;;;;;;;1751894;82;21037;-73
2022/06/04 12:43:02;;;;;;;4.10;2.83;;;;;;;;;;1751722;81;22089;-73
2022/06/04 12:45:41;;;;;;;3.95;2.72;;;;;;;;;;1752041;82;21559;-73
2022/06/04 12:48:19;;;;;;;3.10;2.50;;;;;;;;;;1751892;81;21079;-74
2022/06/04 12:50:46;;;;;;;3.02;2.72;;;;;;;;;;1751872;82;21548;-73
2022/06/04 12:53:16;;;;;;;4.50;2.77;;;;;;;;;;1751956;82;21009;-74
2022/06/04 12:55:59;;;;;;;2.87;2.40;;;;;;;;;;1751857;82;20992;-73
2022/06/04 12:58:30;;;;;;;3.35;2.60;;;;;;;;;;1751127;81;21013;-73
2022/06/04 13:01:07;;;;;;;2.83;2.50;;;;;;;;;;1739966;82;21052;-73
2022/06/04 13:03:35;;;;;;;2.90;2.70;;;;;;;;;;1690833;83;21584;-74
2022/06/04 13:06:24;;;;;;;3.65;2.62;;;;;;;;;;1714912;83;21088;-74
2022/06/04 13:08:55;;;;;;;3.33;2.80;;;;;;;;;;1716738;83;21049;-72
2022/06/04 13:11:23;;;;;;;3.98;2.75;;;;;;;;;;1716660;83;21049;-73
2022/06/04 13:14:08;;;;;;;8.28;2.62;;;;;;;;;;1716457;83;21022;-73
2022/06/04 13:16:36;;;;;;;3.87;2.60;;;;;;;;;;1711237;83;21620;-72
2022/06/04 13:19:11;;;;;;;3.15;2.40;;;;;;;;;;1711289;83;21029;-73
2022/06/04 13:21:38;;;;;;;4.80;2.47;;;;;;;;;;1712007;83;21091;-72
2022/06/04 13:24:06;;;;;;;2.98;2.40;;;;;;;;;;1716189;83;21124;-72
2022/06/04 13:26:42;;;;;;;2.80;2.30;;;;;;;;;;1714862;83;21013;-72
2022/06/04 13:29:25;;;;;;;4.30;2.50;;;;;;;;;;1695360;83;21092;-72
2022/06/04 13:31:53;;;;;;;3.52;2.45;;;;;;;;;;1716301;83;21033;-72
2022/06/04 13:34:24;;;;;;;3.12;2.47;;;;;;;;;;1716811;83;21565;-73
2022/06/04 13:36:49;;;;;;;2.60;2.40;;;;;;;;;;1716306;83;21073;-73
2022/06/04 13:39:19;;;;;;;2.83;2.17;;;;;;;;;;1716553;83;21089;-73
2022/06/04 13:42:01;;;;;;;4.97;2.60;;;;;;;;;;1728115;83;21013;-73
2022/06/04 13:44:28;;;;;;;2.65;2.42;;;;;;;;;;1729821;83;21013;-73
2022/06/04 13:47:12;;;;;;;2.77;2.40;;;;;;;;;;1729668;83;21048;-72
2022/06/04 13:49:38;;;;;;;3.98;2.62;;;;;;;;;;1727916;83;21036;-72
2022/06/04 13:52:16;;;;;;;4.28;2.90;;;;;;;;;;1729643;83;21092;-72
2022/06/04 13:54:49;;;;;;;12.33;3.55;;;;;;;;;;1729759;82;21029;-72
2022/06/04 13:57:20;;;;;;;5.72;3.20;;;;;;;;;;1729641;82;21013;-72
2022/06/04 13:59:47;;;;;;;3.47;3.15;;;;;;;;;;1728107;83;21069;-72
2022/06/04 14:02:15;;;;;;;33.10;4.78;;;;;;;;;;1729352;83;21041;-72
2022/06/04 14:07:31;;;;;;;3.37;2.50;;;;;;;;;;1729774;83;21044;-72
2022/06/04 14:09:57;;;;;;;2.80;2.52;;;;;;;;;;1729130;82;21504;-72
2022/06/04 14:12:31;;;;;;;4.12;2.55;;;;;;;;;;1729676;83;21013;-73
2022/06/04 14:15:05;;;;;;;2.87;2.58;;;;;;;;;;1735604;81;21032;-73
2022/06/04 14:17:40;;;;;;;10.13;3.62;;;;;;;;;;1729646;82;21037;-73
2022/06/04 14:20:14;;;;;;;2.90;2.42;;;;;;;;;;1734730;82;21032;-73
2022/06/04 14:22:54;;;;;;;3.47;2.45;;;;;;;;;;1749477;82;21605;-72
2022/06/04 14:25:22;;;;;;;3.22;2.60;;;;;;;;;;1729753;82;21089;-71
2022/06/04 14:28:03;;;;;;;2.50;2.30;;;;;;;;;;1681869;84;21099;-72
2022/06/04 14:30:40;;;;;;;2.72;2.40;;;;;;;;;;1651423;87;21095;-72
2022/06/04 14:33:08;;;;;;;2.92;2.27;;;;;;;;;;1650962;87;21084;-73
2022/06/04 14:35:36;;;;;;;4.47;2.10;;;;;;;;;;1650183;87;21068;-73
2022/06/04 14:38:08;;;;;;;15.00;3.30;;;;;;;;;;1652764;85;21551;-74
2022/06/04 14:40:36;;;;;;;6.35;3.42;;;;;;;;;;1650347;87;21084;-73
2022/06/04 14:43:09;;;;;;;3.77;2.70;;;;;;;;;;1648373;87;21607;-73
2022/06/04 14:45:43;;;;;;;3.30;2.33;;;;;;;;;;1648173;87;21656;-73
2022/06/04 14:48:14;;;;;;;4.70;2.60;;;;;;;;;;1665290;85;21012;-71
2022/06/04 14:50:42;;;;;;;4.33;2.83;;;;;;;;;;1662087;86;21076;-73
2022/06/04 14:53:08;;;;;;;2.75;2.40;;;;;;;;;;1662196;86;21045;-70
2022/06/04 14:55:37;;;;;;;7.05;3.30;;;;;;;;;;1662642;85;21116;-72
2022/06/04 14:58:08;;;;;;;9.63;3.00;;;;;;;;;;1627395;85;21157;-72
2022/06/04 15:00:42;;;;;;;3.87;2.52;;;;;;;;;;1652904;87;21108;-73
2022/06/04 15:03:10;;;;;;;3.75;2.50;;;;;;;;;;1659419;85;21096;-74
2022/06/04 15:05:54;;;;;;;3.12;2.47;;;;;;;;;;1657771;86;21081;-74
2022/06/04 15:08:32;;;;;;;3.30;2.90;;;;;;;;;;1656385;86;21084;-74
2022/06/04 15:11:01;;;;;;;10.05;6.70;;;;;;;;;;1718645;83;21069;-74
2022/06/04 15:13:31;;;;;;;11.22;4.65;;;;;;;;;;1720631;82;21520;-74
2022/06/04 15:16:04;;;;;;;24.00;16.77;;;;;;;;;;1724168;83;21021;-72
2022/06/04 15:18:47;;;;;;;15.00;10.18;;;;;;;;;;1724413;83;21180;-74
2022/06/04 15:21:14;;;;;;;14.78;10.05;;;;;;;;;;1724671;83;20997;-73
2022/06/04 15:23:43;;;;;;;6.53;5.28;;;;;;;;;;1724456;83;21573;-73